Time;durP1;ratioP1;P1;durP2;ratioP2;P2;SDS_P1;SDS_P2;PMS_P1;PMS_P2;Temp;Humidity;BMP_temperature;BMP_pressure;BME280_temperature;BME280_humidity;BME280_pressure;Samples;Min_cycle;Max_cycle;Signal;HPM_P1;HPM_P2
2022/04/28 00:02:01;;;;;;;;;;;;;;;;;;4992350;28;20279;-63
2022/04/28 00:04:26;;;;;;;;;;;;;;;;;;4999908;28;19917;-63
2022/04/28 00:06:52;;;;;;;;;;;;;;;;;;4994899;28;20494;-63
2022/04/28 00:09:17;;;;;;;;;;;;;;;;;;4993144;28;19944;-63
2022/04/28 00:11:42;;;;;;;;;;;;;;;;;;4995562;28;19941;-63
2022/04/28 00:14:08;;;;;;;;;;;;;;;;;;4996091;28;19921;-62
2022/04/28 00:16:35;;;;;;;;;;;;;;;;;;5001173;28;19922;-62
2022/04/28 00:19:00;;;;;;;;;;;;;;;;;;4999284;28;19945;-62
2022/04/28 00:21:25;;;;;;;;;;;;;;;;;;5002268;28;19968;-62
2022/04/28 00:23:50;;;;;;;;;;;;;;;;;;5001691;28;20012;-62
2022/04/28 00:26:15;;;;;;;;;;;;;;;;;;4997068;28;19918;-63
2022/04/28 00:28:41;;;;;;;;;;;;;;;;;;4997606;28;19925;-63
2022/04/28 00:31:06;;;;;;;;;;;;;;;;;;4994211;28;20523;-63
2022/04/28 00:33:31;;;;;;;;;;;;;;;;;;5001889;28;19917;-62
2022/04/28 00:35:57;;;;;;;;;;;;;;;;;;4996020;28;19921;-63
2022/04/28 00:38:22;;;;;;;;;;;;;;;;;;4999955;28;19924;-62
2022/04/28 00:40:47;;;;;;;;;;;;;;;;;;5004317;28;19925;-63
2022/04/28 00:43:18;;;;;;;;;;;;;;;;;;4996736;28;19925;-63
2022/04/28 00:45:44;;;;;;;;;;;;;;;;;;4998341;28;19925;-63
2022/04/28 00:50:53;;;;;;;;;;;;;;;;;;4995912;28;19918;-62
2022/04/28 00:53:19;;;;;;;;;;;;;;;;;;4997601;28;19917;-63
2022/04/28 00:55:44;;;;;;;;;;;;;;;;;;4993994;28;20296;-63
2022/04/28 00:58:10;;;;;;;;;;;;;;;;;;5001031;28;19932;-62
2022/04/28 01:00:35;;;;;;;;;;;;;;;;;;4997420;28;20393;-63
2022/04/28 01:03:00;;;;;;;;;;;;;;;;;;5003400;28;19981;-63
2022/04/28 01:05:26;;;;;;;;;;;;;;;;;;5002645;28;20686;-63
2022/04/28 01:07:51;;;;;;;;;;;;;;;;;;5001798;28;19922;-62
2022/04/28 01:10:16;;;;;;;;;;;;;;;;;;4995805;28;19991;-63
2022/04/28 01:12:42;;;;;;;;;;;;;;;;;;4994592;28;19953;-62
2022/04/28 01:15:07;;;;;;;;;;;;;;;;;;4997507;28;20010;-63
2022/04/28 01:17:32;;;;;;;;;;;;;;;;;;4996521;28;19917;-63
2022/04/28 01:20:01;;;;;;;;;;;;;;;;;;4997696;28;19924;-63
2022/04/28 01:22:27;;;;;;;;;;;;;;;;;;5001177;28;20396;-62
2022/04/28 01:24:53;;;;;;;;;;;;;;;;;;4998488;28;19917;-63
2022/04/28 01:27:18;;;;;;;;;;;;;;;;;;4993633;28;19921;-63
2022/04/28 01:29:43;;;;;;;;;;;;;;;;;;5000855;28;19921;-62
2022/04/28 01:32:09;;;;;;;;;;;;;;;;;;5001363;28;19917;-63
2022/04/28 01:34:39;;;;;;;;;;;;;;;;;;4998293;28;20175;-63
2022/04/28 01:37:04;;;;;;;;;;;;;;;;;;4996036;28;19917;-63
2022/04/28 01:39:29;;;;;;;;;;;;;;;;;;4994372;28;20390;-63
2022/04/28 01:41:55;;;;;;;;;;;;;;;;;;5001573;28;19917;-62
2022/04/28 01:44:21;;;;;;;;;;;;;;;;;;4992568;28;19975;-62
2022/04/28 01:46:46;;;;;;;;;;;;;;;;;;4993923;28;19925;-63
2022/04/28 01:49:28;;;;;;;;;;;;;;;;;;5000927;28;19929;-62
2022/04/28 01:55:16;;;;;;;;;;;;;;;;;;4997832;28;19917;-62
2022/04/28 01:57:41;;;;;;;;;;;;;;;;;;4994314;28;19925;-63
2022/04/28 02:00:25;;;;;;;;;;;;;;;;;;4994209;28;19931;-63
2022/04/28 02:02:59;;;;;;;;;;;;;;;;;;4999109;28;20251;-62
2022/04/28 02:05:25;;;;;;;;;;;;;;;;;;4991504;28;19922;-62
2022/04/28 02:07:51;;;;;;;;;;;;;;;;;;4991561;28;20370;-62
2022/04/28 02:10:16;;;;;;;;;;;;;;;;;;5000578;28;20426;-62
2022/04/28 02:12:42;;;;;;;;;;;;;;;;;;4995552;28;20378;-63
2022/04/28 02:15:07;;;;;;;;;;;;;;;;;;4995798;28;20494;-63
2022/04/28 02:17:52;;;;;;;;;;;;;;;;;;5000379;28;19924;-63
2022/04/28 02:20:18;;;;;;;;;;;;;;;;;;4976315;28;19917;-62
2022/04/28 02:22:44;;;;;;;;;;;;;;;;;;4993690;28;19921;-63
2022/04/28 02:25:10;;;;;;;;;;;;;;;;;;4994135;28;19925;-62
2022/04/28 02:27:35;;;;;;;;;;;;;;;;;;4996308;28;19932;-62
2022/04/28 02:30:00;;;;;;;;;;;;;;;;;;4993679;28;19964;-63
2022/04/28 02:33:08;;;;;;;;;;;;;;;;;;4995537;28;19925;-63
2022/04/28 02:35:11;;;;;;;;;;;;;;;;;;5006986;28;19957;-62
2022/04/28 02:37:36;;;;;;;;;;;;;;;;;;4993981;28;19957;-62
2022/04/28 02:40:02;;;;;;;;;;;;;;;;;;4999443;28;20016;-63
2022/04/28 02:42:28;;;;;;;;;;;;;;;;;;4998808;28;20366;-62
2022/04/28 02:44:53;;;;;;;;;;;;;;;;;;4995397;28;19981;-63
2022/04/28 02:47:18;;;;;;;;;;;;;;;;;;5000193;28;19925;-63
2022/04/28 02:49:44;;;;;;;;;;;;;;;;;;4993075;28;20003;-62
2022/04/28 02:52:11;;;;;;;;;;;;;;;;;;4998780;28;19918;-63
2022/04/28 02:54:36;;;;;;;;;;;;;;;;;;5000353;28;20093;-62
2022/04/28 02:57:02;;;;;;;;;;;;;;;;;;4986117;28;20293;-62
2022/04/28 02:59:27;;;;;;;;;;;;;;;;;;4994718;28;20290;-62
2022/04/28 03:01:52;;;;;;;;;;;;;;;;;;4998633;28;19917;-62
2022/04/28 03:04:18;;;;;;;;;;;;;;;;;;4997592;28;20040;-63
2022/04/28 03:12:13;;;;;;;;;;;;;;;;;;4994493;28;20056;-62
2022/04/28 03:14:46;;;;;;;;;;;;;;;;;;4990299;28;19917;-63
2022/04/28 03:17:12;;;;;;;;;;;;;;;;;;4995844;28;19918;-62
2022/04/28 03:19:37;;;;;;;;;;;;;;;;;;4985828;28;20034;-62
2022/04/28 03:22:02;;;;;;;;;;;;;;;;;;4989210;28;19960;-62
2022/04/28 03:24:28;;;;;;;;;;;;;;;;;;4993494;28;19926;-63
2022/04/28 03:26:53;;;;;;;;;;;;;;;;;;4997217;28;19914;-62
2022/04/28 03:29:19;;;;;;;;;;;;;;;;;;5002000;28;19932;-62
2022/04/28 03:31:44;;;;;;;;;;;;;;;;;;4994610;28;19918;-63
2022/04/28 03:34:28;;;;;;;;;;;;;;;;;;4998487;28;19971;-62
2022/04/28 03:36:53;;;;;;;;;;;;;;;;;;4994490;28;19917;-63
2022/04/28 03:39:37;;;;;;;;;;;;;;;;;;5001572;28;19918;-62
2022/04/28 03:42:02;;;;;;;;;;;;;;;;;;5003184;28;20317;-63
2022/04/28 03:44:28;;;;;;;;;;;;;;;;;;5003875;28;19921;-62
2022/04/28 03:46:53;;;;;;;;;;;;;;;;;;5003110;28;20283;-62
2022/04/28 03:49:18;;;;;;;;;;;;;;;;;;5002070;28;20385;-63
2022/04/28 03:51:43;;;;;;;;;;;;;;;;;;4996495;28;19921;-63
2022/04/28 03:54:09;;;;;;;;;;;;;;;;;;5002641;28;19921;-63
2022/04/28 03:56:35;;;;;;;;;;;;;;;;;;4996669;28;20329;-63
2022/04/28 03:59:06;;;;;;;;;;;;;;;;;;4996406;28;19924;-63
2022/04/28 04:01:49;;;;;;;;;;;;;;;;;;4996391;28;19914;-63
2022/04/28 04:04:14;;;;;;;;;;;;;;;;;;4993113;28;19924;-63
2022/04/28 04:06:43;;;;;;;;;;;;;;;;;;4997683;28;19973;-62
2022/04/28 04:09:37;;;;;;;;;;;;;;;;;;4994331;28;20318;-63
2022/04/28 04:12:10;;;;;;;;;;;;;;;;;;4996536;28;19918;-62
2022/04/28 04:14:55;;;;;;;;;;;;;;;;;;4998470;28;19975;-63
2022/04/28 04:17:23;;;;;;;;;;;;;;;;;;4998612;28;20758;-62
2022/04/28 04:19:48;;;;;;;;;;;;;;;;;;4994329;28;20415;-62
2022/04/28 04:22:14;;;;;;;;;;;;;;;;;;4995989;28;19918;-62
2022/04/28 04:24:40;;;;;;;;;;;;;;;;;;5002369;28;19918;-62
2022/04/28 04:27:07;;;;;;;;;;;;;;;;;;5003690;28;19967;-62
2022/04/28 04:29:55;;;;;;;;;;;;;;;;;;4998970;28;19929;-63
2022/04/28 04:32:43;;;;;;;;;;;;;;;;;;5002968;28;19917;-62
2022/04/28 04:35:26;;;;;;;;;;;;;;;;;;4998530;28;19944;-63
2022/04/28 04:37:52;;;;;;;;;;;;;;;;;;4977320;28;19949;-62
2022/04/28 04:40:17;;;;;;;;;;;;;;;;;;4993565;28;20069;-62
2022/04/28 04:42:44;;;;;;;;;;;;;;;;;;5003270;28;19922;-62
2022/04/28 04:45:09;;;;;;;;;;;;;;;;;;5001518;28;20342;-62
2022/04/28 04:47:52;;;;;;;;;;;;;;;;;;4996246;28;19925;-62
2022/04/28 04:50:36;;;;;;;;;;;;;;;;;;4994190;28;20300;-62
2022/04/28 04:53:05;;;;;;;;;;;;;;;;;;4994669;28;19960;-62
2022/04/28 04:55:30;;;;;;;;;;;;;;;;;;4997686;28;21009;-62
2022/04/28 04:58:01;;;;;;;;;;;;;;;;;;4997318;28;20021;-62
2022/04/28 05:00:26;;;;;;;;;;;;;;;;;;4993446;28;20539;-63
2022/04/28 05:03:21;;;;;;;;;;;;;;;;;;5031692;28;20368;-62
2022/04/28 05:06:18;;;;;;;;;;;;;;;;;;5008846;28;19918;-63
2022/04/28 05:09:01;;;;;;;;;;;;;;;;;;4994512;28;20305;-62
2022/04/28 05:11:27;;;;;;;;;;;;;;;;;;4993095;28;19925;-63
2022/04/28 05:14:00;;;;;;;;;;;;;;;;;;4997504;28;19924;-63
2022/04/28 05:16:25;;;;;;;;;;;;;;;;;;4996631;28;20302;-62
2022/04/28 05:19:16;;;;;;;;;;;;;;;;;;5011915;28;20262;-62
2022/04/28 05:22:14;;;;;;;;;;;;;;;;;;4995051;28;19969;-62
2022/04/28 05:25:14;;;;;;;;;;;;;;;;;;5031736;28;19916;-62
2022/04/28 05:27:58;;;;;;;;;;;;;;;;;;5000814;28;19928;-62
2022/04/28 05:31:02;;;;;;;;;;;;;;;;;;5033682;28;19960;-62
2022/04/28 05:34:03;;;;;;;;;;;;;;;;;;4961444;28;20455;-62
2022/04/28 05:36:57;;;;;;;;;;;;;;;;;;4989152;28;20036;-62
2022/04/28 05:39:22;;;;;;;;;;;;;;;;;;4999348;28;20476;-62
2022/04/28 05:41:48;;;;;;;;;;;;;;;;;;4997432;28;20431;-62
2022/04/28 05:46:57;;;;;;;;;;;;;;;;;;4993259;28;19917;-63
2022/04/28 05:49:22;;;;;;;;;;;;;;;;;;4990001;28;19921;-64
2022/04/28 05:51:49;;;;;;;;;;;;;;;;;;4966512;28;20506;-63
2022/04/28 05:54:16;;;;;;;;;;;;;;;;;;4987284;28;19929;-64
2022/04/28 05:56:45;;;;;;;;;;;;;;;;;;4988872;28;20132;-64
2022/04/28 05:59:11;;;;;;;;;;;;;;;;;;4990215;28;20014;-63
2022/04/28 06:01:46;;;;;;;;;;;;;;;;;;4988815;28;19965;-63
2022/04/28 06:04:15;;;;;;;;;;;;;;;;;;4987531;28;19961;-63
2022/04/28 06:06:43;;;;;;;;;;;;;;;;;;4997372;28;19917;-63
2022/04/28 06:09:19;;;;;;;;;;;;;;;;;;4990673;28;19926;-63
2022/04/28 06:11:45;;;;;;;;;;;;;;;;;;4997275;28;20423;-64
2022/04/28 06:14:10;;;;;;;;;;;;;;;;;;4991316;28;19917;-64
2022/04/28 06:16:44;;;;;;;;;;;;;;;;;;4988943;28;19922;-63
2022/04/28 06:19:17;;;;;;;;;;;;;;;;;;4998218;28;19922;-63
2022/04/28 06:22:02;;;;;;;;;;;;;;;;;;4991502;28;20290;-63
2022/04/28 06:24:31;;;;;;;;;;;;;;;;;;4999027;28;20013;-63
2022/04/28 06:26:56;;;;;;;;;;;;;;;;;;4988234;28;19927;-64
2022/04/28 06:29:22;;;;;;;;;;;;;;;;;;4988184;28;19981;-64
2022/04/28 06:31:47;;;;;;;;;;;;;;;;;;4988064;28;19992;-64
2022/04/28 06:34:32;;;;;;;;;;;;;;;;;;4991456;28;19925;-65
2022/04/28 06:36:58;;;;;;;;;;;;;;;;;;4973948;28;19917;-66
2022/04/28 06:39:26;;;;;;;;;;;;;;;;;;4995651;28;20353;-66
2022/04/28 06:41:52;;;;;;;;;;;;;;;;;;4988961;28;20235;-64
2022/04/28 06:44:21;;;;;;;;;;;;;;;;;;4997030;28;19921;-62
2022/04/28 06:47:06;;;;;;;;;;;;;;;;;;4988399;28;19929;-63
2022/04/28 06:49:51;;;;;;;;;;;;;;;;;;4991475;28;19968;-63
2022/04/28 06:52:19;;;;;;;;;;;;;;;;;;4990531;28;19924;-63
2022/04/28 06:55:06;;;;;;;;;;;;;;;;;;4997090;28;19929;-63
2022/04/28 06:57:31;;;;;;;;;;;;;;;;;;4988972;28;20234;-63
2022/04/28 07:00:06;;;;;;;;;;;;;;;;;;4991031;28;19948;-63
2022/04/28 07:02:36;;;;;;;;;;;;;;;;;;4984459;28;20382;-64
2022/04/28 07:05:02;;;;;;;;;;;;;;;;;;4993111;28;20651;-63
2022/04/28 07:07:27;;;;;;;;;;;;;;;;;;4984108;28;20410;-64
2022/04/28 07:09:56;;;;;;;;;;;;;;;;;;5000377;28;19933;-64
2022/04/28 07:12:21;;;;;;;;;;;;;;;;;;5003233;28;19918;-63
2022/04/28 07:15:09;;;;;;;;;;;;;;;;;;5018212;28;19957;-63
2022/04/28 07:17:43;;;;;;;;;;;;;;;;;;4995810;28;19925;-63
2022/04/28 07:20:09;;;;;;;;;;;;;;;;;;5000630;28;19917;-63
2022/04/28 07:22:34;;;;;;;;;;;;;;;;;;4994920;28;19956;-62
2022/04/28 07:25:00;;;;;;;;;;;;;;;;;;4991342;28;19917;-64
2022/04/28 07:27:25;;;;;;;;;;;;;;;;;;4993991;28;19929;-64
2022/04/28 07:29:56;;;;;;;;;;;;;;;;;;4993081;28;20370;-62
2022/04/28 07:32:34;;;;;;;;;;;;;;;;;;4994178;28;19924;-63
2022/04/28 07:35:26;;;;;;;;;;;;;;;;;;5014039;28;19918;-61
2022/04/28 07:38:10;;;;;;;;;;;;;;;;;;4997337;28;19960;-62
2022/04/28 07:40:51;;;;;;;;;;;;;;;;;;4981467;28;20337;-61
2022/04/28 07:43:17;;;;;;;;;;;;;;;;;;4994799;28;19922;-63
2022/04/28 07:45:42;;;;;;;;;;;;;;;;;;4994405;28;20386;-62
2022/04/28 07:48:13;;;;;;;;;;;;;;;;;;5001473;28;20025;-62
2022/04/28 07:50:38;;;;;;;;;;;;;;;;;;4991795;28;19922;-62
2022/04/28 07:53:10;;;;;;;;;;;;;;;;;;4991818;28;19924;-61
2022/04/28 07:55:35;;;;;;;;;;;;;;;;;;4991977;28;19922;-62
2022/04/28 07:58:01;;;;;;;;;;;;;;;;;;4992622;28;19917;-61
2022/04/28 08:00:51;;;;;;;;;;;;;;;;;;5000609;28;19954;-62
2022/04/28 08:03:18;;;;;;;;;;;;;;;;;;4996580;28;19917;-61
2022/04/28 08:05:49;;;;;;;;;;;;;;;;;;4996328;28;19918;-61
2022/04/28 08:08:14;;;;;;;;;;;;;;;;;;4992403;28;19929;-61
2022/04/28 08:10:40;;;;;;;;;;;;;;;;;;4989902;28;19918;-62
2022/04/28 08:13:05;;;;;;;;;;;;;;;;;;4993583;28;19922;-62
2022/04/28 08:15:57;;;;;;;;;;;;;;;;;;5009833;28;19921;-62
2022/04/28 08:18:30;;;;;;;;;;;;;;;;;;4991020;28;20405;-61
2022/04/28 08:20:55;;;;;;;;;;;;;;;;;;4992959;28;19917;-62
2022/04/28 08:23:21;;;;;;;;;;;;;;;;;;4996953;28;19925;-62
2022/04/28 08:25:46;;;;;;;;;;;;;;;;;;4974976;28;19972;-61
2022/04/28 08:28:12;;;;;;;;;;;;;;;;;;4991537;28;19987;-62
2022/04/28 08:30:37;;;;;;;;;;;;;;;;;;4983512;28;19925;-62
2022/04/28 08:33:04;;;;;;;;;;;;;;;;;;4998594;28;19917;-61
2022/04/28 08:35:29;;;;;;;;;;;;;;;;;;4994215;28;19918;-62
2022/04/28 08:37:55;;;;;;;;;;;;;;;;;;4992122;28;20187;-61
2022/04/28 08:40:20;;;;;;;;;;;;;;;;;;4992232;28;19924;-61
2022/04/28 08:42:47;;;;;;;;;;;;;;;;;;5001071;28;19918;-62
2022/04/28 08:45:23;;;;;;;;;;;;;;;;;;4991379;28;20004;-62
2022/04/28 08:48:14;;;;;;;;;;;;;;;;;;4992254;28;19969;-62
2022/04/28 08:51:00;;;;;;;;;;;;;;;;;;4996123;28;19941;-63
2022/04/28 08:53:25;;;;;;;;;;;;;;;;;;4992083;28;19918;-62
2022/04/28 08:55:50;;;;;;;;;;;;;;;;;;5001041;28;19924;-62
2022/04/28 08:58:16;;;;;;;;;;;;;;;;;;4992358;28;19928;-61
2022/04/28 09:00:45;;;;;;;;;;;;;;;;;;5000139;28;19921;-62
2022/04/28 09:03:25;;;;;;;;;;;;;;;;;;4993077;28;19917;-61
2022/04/28 09:06:23;;;;;;;;;;;;;;;;;;5018653;28;19917;-62
2022/04/28 09:09:04;;;;;;;;;;;;;;;;;;4993520;28;19921;-62
2022/04/28 09:11:49;;;;;;;;;;;;;;;;;;4998250;28;19929;-61
2022/04/28 09:14:49;;;;;;;;;;;;;;;;;;5042080;28;19917;-61
2022/04/28 09:17:19;;;;;;;;;;;;;;;;;;5003537;28;19917;-61
2022/04/28 09:19:45;;;;;;;;;;;;;;;;;;4993814;28;20465;-61
2022/04/28 09:22:23;;;;;;;;;;;;;;;;;;4999486;28;20013;-62
2022/04/28 09:24:50;;;;;;;;;;;;;;;;;;4992554;28;19964;-61
2022/04/28 09:27:17;;;;;;;;;;;;;;;;;;4991546;28;20204;-61
2022/04/28 09:29:44;;;;;;;;;;;;;;;;;;4983173;28;20000;-62
2022/04/28 09:32:09;;;;;;;;;;;;;;;;;;4991757;28;19917;-62
2022/04/28 09:35:04;;;;;;;;;;;;;;;;;;4992545;28;19921;-63
2022/04/28 09:37:48;;;;;;;;;;;;;;;;;;4992482;28;20477;-62
2022/04/28 09:42:59;;;;;;;;;;;;;;;;;;4990804;28;19948;-62
2022/04/28 09:45:33;;;;;;;;;;;;;;;;;;4966869;28;20243;-62
2022/04/28 09:48:00;;;;;;;;;;;;;;;;;;4989403;28;19925;-62
2022/04/28 09:50:26;;;;;;;;;;;;;;;;;;4998464;28;19926;-63
2022/04/28 09:53:06;;;;;;;;;;;;;;;;;;4989121;28;19922;-62
2022/04/28 09:55:44;;;;;;;;;;;;;;;;;;4989809;28;20019;-62
2022/04/28 09:58:23;;;;;;;;;;;;;;;;;;4999599;28;20350;-62
2022/04/28 10:00:48;;;;;;;;;;;;;;;;;;4992553;28;20290;-62
2022/04/28 10:03:13;;;;;;;;;;;;;;;;;;4989846;28;20290;-62
2022/04/28 10:05:40;;;;;;;;;;;;;;;;;;4990006;28;19925;-61
2022/04/28 10:08:28;;;;;;;;;;;;;;;;;;4988647;28;19921;-62
2022/04/28 10:10:55;;;;;;;;;;;;;;;;;;4995698;28;19929;-61
2022/04/28 10:13:20;;;;;;;;;;;;;;;;;;4997224;28;19929;-61
2022/04/28 10:15:50;;;;;;;;;;;;;;;;;;4988561;28;19956;-61
2022/04/28 10:18:16;;;;;;;;;;;;;;;;;;4993228;28;20000;-62
2022/04/28 10:20:41;;;;;;;;;;;;;;;;;;4994256;28;19948;-61
2022/04/28 10:23:07;;;;;;;;;;;;;;;;;;4992638;28;19921;-61
2022/04/28 10:34:11;;;;;;;;;;;;;;;;;;4991874;28;19953;-61
2022/04/28 10:36:36;;;;;;;;;;;;;;;;;;4993375;28;19961;-62
2022/04/28 10:39:01;;;;;;;;;;;;;;;;;;5000997;28;20016;-62
2022/04/28 10:41:27;;;;;;;;;;;;;;;;;;4995545;28;19918;-62
2022/04/28 10:43:52;;;;;;;;;;;;;;;;;;4994624;28;19921;-62
2022/04/28 10:46:22;;;;;;;;;;;;;;;;;;4995176;28;20439;-61
2022/04/28 10:48:48;;;;;;;;;;;;;;;;;;4996405;28;20282;-62
2022/04/28 10:51:13;;;;;;;;;;;;;;;;;;4990891;28;20581;-62
2022/04/28 10:53:38;;;;;;;;;;;;;;;;;;4994355;28;19917;-61
2022/04/28 10:56:03;;;;;;;;;;;;;;;;;;4991761;28;19918;-62
2022/04/28 10:58:29;;;;;;;;;;;;;;;;;;4991908;28;19918;-62
2022/04/28 11:00:54;;;;;;;;;;;;;;;;;;4998000;28;20378;-61
2022/04/28 11:03:19;;;;;;;;;;;;;;;;;;4998611;28;19918;-62
2022/04/28 11:05:44;;;;;;;;;;;;;;;;;;4995499;28;19921;-62
2022/04/28 11:08:10;;;;;;;;;;;;;;;;;;4994825;28;19921;-62
2022/04/28 11:10:35;;;;;;;;;;;;;;;;;;4997267;28;20265;-62
2022/04/28 11:13:00;;;;;;;;;;;;;;;;;;5016621;28;19918;-62
2022/04/28 11:15:27;;;;;;;;;;;;;;;;;;5013917;28;20616;-62
2022/04/28 11:17:52;;;;;;;;;;;;;;;;;;5013493;28;19925;-61
2022/04/28 11:20:19;;;;;;;;;;;;;;;;;;5020882;28;19917;-62
2022/04/28 11:22:58;;;;;;;;;;;;;;;;;;5014436;28;20297;-62
2022/04/28 11:25:24;;;;;;;;;;;;;;;;;;5015292;28;19924;-62
2022/04/28 11:27:51;;;;;;;;;;;;;;;;;;5013454;28;20000;-62
2022/04/28 11:30:17;;;;;;;;;;;;;;;;;;5013720;28;20360;-63
2022/04/28 11:32:42;;;;;;;;;;;;;;;;;;5015422;28;19925;-63
2022/04/28 11:35:08;;;;;;;;;;;;;;;;;;5021268;28;19939;-62
2022/04/28 11:37:33;;;;;;;;;;;;;;;;;;5015924;28;20360;-62
2022/04/28 11:39:58;;;;;;;;;;;;;;;;;;5016637;28;20409;-62
2022/04/28 11:42:26;;;;;;;;;;;;;;;;;;5016524;28;20004;-62
2022/04/28 11:44:51;;;;;;;;;;;;;;;;;;5033152;28;19933;-62
2022/04/28 11:47:17;;;;;;;;;;;;;;;;;;5018942;28;19918;-62
2022/04/28 11:49:42;;;;;;;;;;;;;;;;;;5032838;28;19960;-62
2022/04/28 11:52:07;;;;;;;;;;;;;;;;;;5017009;28;20384;-63
2022/04/28 11:54:32;;;;;;;;;;;;;;;;;;5015965;28;19917;-62
2022/04/28 11:56:57;;;;;;;;;;;;;;;;;;5016016;28;19917;-62
2022/04/28 11:59:24;;;;;;;;;;;;;;;;;;5013844;28;19917;-62
2022/04/28 12:01:49;;;;;;;;;;;;;;;;;;5016318;28;19917;-63
2022/04/28 12:04:16;;;;;;;;;;;;;;;;;;5013082;28;19925;-62
2022/04/28 12:06:42;;;;;;;;;;;;;;;;;;5015849;28;19917;-62
2022/04/28 12:14:54;;;;;;;;;;;;;;;;;;5014254;28;20365;-62
2022/04/28 12:20:05;;;;;;;;;;;;;;;;;;5017007;28;19979;-62
2022/04/28 12:22:30;;;;;;;;;;;;;;;;;;5016463;28;19928;-63
2022/04/28 12:24:56;;;;;;;;;;;;;;;;;;5014380;28;19918;-63
2022/04/28 12:27:21;;;;;;;;;;;;;;;;;;5013954;28;19952;-62
2022/04/28 12:29:47;;;;;;;;;;;;;;;;;;5028370;28;19925;-63
2022/04/28 12:32:14;;;;;;;;;;;;;;;;;;5015770;28;20382;-62
2022/04/28 12:34:39;;;;;;;;;;;;;;;;;;5014605;28;19917;-62
2022/04/28 12:37:04;;;;;;;;;;;;;;;;;;5018264;28;19918;-62
2022/04/28 12:39:30;;;;;;;;;;;;;;;;;;5016078;28;19917;-62
2022/04/28 12:41:56;;;;;;;;;;;;;;;;;;5014406;28;19949;-63
2022/04/28 12:44:22;;;;;;;;;;;;;;;;;;5013076;28;19983;-62
2022/04/28 12:46:49;;;;;;;;;;;;;;;;;;5029283;28;20011;-61
2022/04/28 12:49:14;;;;;;;;;;;;;;;;;;5013170;28;19921;-61
2022/04/28 12:51:39;;;;;;;;;;;;;;;;;;5012960;28;20060;-61
2022/04/28 12:54:04;;;;;;;;;;;;;;;;;;5014098;28;19924;-62
2022/04/28 12:56:29;;;;;;;;;;;;;;;;;;5016407;28;19917;-62
2022/04/28 12:58:55;;;;;;;;;;;;;;;;;;5014481;28;19924;-61
2022/04/28 13:01:20;;;;;;;;;;;;;;;;;;5020158;28;19996;-62
2022/04/28 13:03:45;;;;;;;;;;;;;;;;;;5015261;28;20011;-61
2022/04/28 13:06:10;;;;;;;;;;;;;;;;;;5015205;28;20385;-62
2022/04/28 13:08:35;;;;;;;;;;;;;;;;;;5014836;28;19925;-62
2022/04/28 13:11:01;;;;;;;;;;;;;;;;;;5014631;28;19921;-62
2022/04/28 13:13:26;;;;;;;;;;;;;;;;;;5012834;28;19920;-61
2022/04/28 13:15:51;;;;;;;;;;;;;;;;;;5003264;28;19917;-61
2022/04/28 13:18:17;;;;;;;;;;;;;;;;;;5013255;28;19921;-61
2022/04/28 13:20:42;;;;;;;;;;;;;;;;;;5013912;28;20040;-62
2022/04/28 13:23:07;;;;;;;;;;;;;;;;;;5013982;28;19933;-61
2022/04/28 13:25:32;;;;;;;;;;;;;;;;;;5013939;28;19917;-61
2022/04/28 13:27:58;;;;;;;;;;;;;;;;;;5011766;28;20354;-62
2022/04/28 13:30:23;;;;;;;;;;;;;;;;;;5012886;28;19928;-62
2022/04/28 13:32:48;;;;;;;;;;;;;;;;;;5013883;28;19917;-62
2022/04/28 13:35:13;;;;;;;;;;;;;;;;;;5014263;28;19922;-62
2022/04/28 13:37:39;;;;;;;;;;;;;;;;;;5011759;28;19917;-61
2022/04/28 13:40:04;;;;;;;;;;;;;;;;;;5015747;28;19972;-61
2022/04/28 13:42:29;;;;;;;;;;;;;;;;;;5014255;28;19917;-62
2022/04/28 13:44:55;;;;;;;;;;;;;;;;;;5014303;28;19921;-62
2022/04/28 13:47:21;;;;;;;;;;;;;;;;;;5011374;28;19918;-62
2022/04/28 13:49:46;;;;;;;;;;;;;;;;;;5012584;28;19944;-62
2022/04/28 13:52:11;;;;;;;;;;;;;;;;;;5014217;28;20365;-62
2022/04/28 13:54:36;;;;;;;;;;;;;;;;;;5013871;28;19921;-62
2022/04/28 13:57:01;;;;;;;;;;;;;;;;;;5014236;28;19917;-62
2022/04/28 13:59:27;;;;;;;;;;;;;;;;;;5010516;28;19921;-62
2022/04/28 14:01:52;;;;;;;;;;;;;;;;;;5014136;28;19917;-62
2022/04/28 14:04:24;;;;;;;;;;;;;;;;;;5012095;28;19943;-62
2022/04/28 14:06:49;;;;;;;;;;;;;;;;;;5013692;28;20451;-62
2022/04/28 14:09:14;;;;;;;;;;;;;;;;;;5013103;28;20312;-61
2022/04/28 14:11:40;;;;;;;;;;;;;;;;;;5014365;28;20010;-61
2022/04/28 14:14:05;;;;;;;;;;;;;;;;;;5013327;28;19917;-62
2022/04/28 14:16:30;;;;;;;;;;;;;;;;;;5014122;28;19921;-63
2022/04/28 14:18:55;;;;;;;;;;;;;;;;;;5011732;28;20789;-62
2022/04/28 14:21:20;;;;;;;;;;;;;;;;;;5013637;28;20437;-62
2022/04/28 14:23:46;;;;;;;;;;;;;;;;;;5013057;28;20393;-61
2022/04/28 14:26:11;;;;;;;;;;;;;;;;;;5009035;28;20011;-61
2022/04/28 14:28:36;;;;;;;;;;;;;;;;;;5015316;28;19921;-62
2022/04/28 14:31:02;;;;;;;;;;;;;;;;;;5015742;28;20283;-62
2022/04/28 14:33:27;;;;;;;;;;;;;;;;;;5017888;28;19924;-62
2022/04/28 14:35:52;;;;;;;;;;;;;;;;;;5016258;28;19918;-62
2022/04/28 14:38:19;;;;;;;;;;;;;;;;;;5014724;28;20364;-62
2022/04/28 14:40:44;;;;;;;;;;;;;;;;;;5010834;28;19940;-62
2022/04/28 14:43:09;;;;;;;;;;;;;;;;;;5013076;28;19917;-62
2022/04/28 14:45:35;;;;;;;;;;;;;;;;;;5012180;28;20327;-62
2022/04/28 14:48:01;;;;;;;;;;;;;;;;;;5015279;28;20364;-62
2022/04/28 14:53:10;;;;;;;;;;;;;;;;;;5013794;28;19921;-62
2022/04/28 14:55:36;;;;;;;;;;;;;;;;;;5012180;28;19917;-63
2022/04/28 14:58:06;;;;;;;;;;;;;;;;;;5010001;28;19918;-62
2022/04/28 15:00:31;;;;;;;;;;;;;;;;;;5012959;28;19978;-63
2022/04/28 15:02:57;;;;;;;;;;;;;;;;;;5011893;28;19921;-63
2022/04/28 15:05:22;;;;;;;;;;;;;;;;;;5013470;28;19917;-63
2022/04/28 15:07:47;;;;;;;;;;;;;;;;;;5019773;28;19933;-63
2022/04/28 15:10:12;;;;;;;;;;;;;;;;;;5012914;28;19928;-63
2022/04/28 15:12:38;;;;;;;;;;;;;;;;;;5014550;28;20412;-62
2022/04/28 15:15:03;;;;;;;;;;;;;;;;;;5015149;28;20042;-63
2022/04/28 15:17:31;;;;;;;;;;;;;;;;;;5011794;28;19917;-62
2022/04/28 15:19:56;;;;;;;;;;;;;;;;;;5014096;28;20140;-62
2022/04/28 15:22:22;;;;;;;;;;;;;;;;;;5016076;28;19940;-63
2022/04/28 15:24:47;;;;;;;;;;;;;;;;;;5014873;28;19922;-63
2022/04/28 15:27:12;;;;;;;;;;;;;;;;;;5015217;28;19918;-62
2022/04/28 15:29:37;;;;;;;;;;;;;;;;;;5014782;28;19928;-62
2022/04/28 15:32:02;;;;;;;;;;;;;;;;;;5016398;28;19928;-62
2022/04/28 15:34:28;;;;;;;;;;;;;;;;;;5017106;28;19924;-63
2022/04/28 15:36:53;;;;;;;;;;;;;;;;;;5023207;28;20437;-63
2022/04/28 15:39:20;;;;;;;;;;;;;;;;;;5009486;28;20526;-63
2022/04/28 15:41:45;;;;;;;;;;;;;;;;;;5016338;28;19956;-63
2022/04/28 15:44:11;;;;;;;;;;;;;;;;;;5014828;28;20367;-64
2022/04/28 15:46:36;;;;;;;;;;;;;;;;;;5017135;28;19921;-63
2022/04/28 15:49:01;;;;;;;;;;;;;;;;;;5014805;28;20353;-63
2022/04/28 15:51:26;;;;;;;;;;;;;;;;;;5020714;28;20426;-63
2022/04/28 15:53:52;;;;;;;;;;;;;;;;;;5018327;28;20305;-63
2022/04/28 15:56:18;;;;;;;;;;;;;;;;;;5017376;28;20399;-64
2022/04/28 15:58:44;;;;;;;;;;;;;;;;;;5013834;28;19921;-63
2022/04/28 16:01:09;;;;;;;;;;;;;;;;;;5020970;28;19939;-67
2022/04/28 16:03:34;;;;;;;;;;;;;;;;;;5025484;28;20369;-63
2022/04/28 16:06:00;;;;;;;;;;;;;;;;;;5023350;28;20000;-63
2022/04/28 16:08:25;;;;;;;;;;;;;;;;;;5016974;28;19931;-65
2022/04/28 16:10:50;;;;;;;;;;;;;;;;;;5011345;28;20634;-63
2022/04/28 16:13:16;;;;;;;;;;;;;;;;;;5015219;28;19925;-63
2022/04/28 16:15:41;;;;;;;;;;;;;;;;;;5013722;28;20431;-63
2022/04/28 16:18:06;;;;;;;;;;;;;;;;;;5017369;28;20236;-63
2022/04/28 16:20:31;;;;;;;;;;;;;;;;;;5012112;28;19917;-63
2022/04/28 16:22:58;;;;;;;;;;;;;;;;;;5019118;28;20371;-63
2022/04/28 16:25:24;;;;;;;;;;;;;;;;;;5014225;28;20429;-62
2022/04/28 16:27:49;;;;;;;;;;;;;;;;;;5008981;28;19925;-63
2022/04/28 16:30:14;;;;;;;;;;;;;;;;;;5019148;28;19921;-63
2022/04/28 16:32:40;;;;;;;;;;;;;;;;;;5018467;28;19920;-63
2022/04/28 16:35:05;;;;;;;;;;;;;;;;;;5009860;28;20318;-65
2022/04/28 16:37:31;;;;;;;;;;;;;;;;;;5016956;28;19947;-63
2022/04/28 16:39:56;;;;;;;;;;;;;;;;;;5012193;28;20353;-63
2022/04/28 16:42:25;;;;;;;;;;;;;;;;;;5013341;28;19924;-63
2022/04/28 16:44:50;;;;;;;;;;;;;;;;;;5015456;28;20329;-63
2022/04/28 16:47:16;;;;;;;;;;;;;;;;;;5012170;28;19923;-63
2022/04/28 16:49:41;;;;;;;;;;;;;;;;;;5018057;28;20028;-62
2022/04/28 16:52:07;;;;;;;;;;;;;;;;;;5010408;28;20192;-62
2022/04/28 16:54:32;;;;;;;;;;;;;;;;;;5017280;28;19971;-62
2022/04/28 16:57:01;;;;;;;;;;;;;;;;;;5006592;28;19921;-63
2022/04/28 16:59:26;;;;;;;;;;;;;;;;;;5016442;28;20075;-64
2022/04/28 17:01:52;;;;;;;;;;;;;;;;;;5008257;28;19921;-64
2022/04/28 17:04:24;;;;;;;;;;;;;;;;;;5009167;28;19922;-64
2022/04/28 17:06:49;;;;;;;;;;;;;;;;;;5012932;28;20222;-64
2022/04/28 17:09:16;;;;;;;;;;;;;;;;;;5013023;28;19933;-64
2022/04/28 17:11:41;;;;;;;;;;;;;;;;;;5009807;28;19917;-64
2022/04/28 17:14:08;;;;;;;;;;;;;;;;;;5014977;28;19917;-63
2022/04/28 17:16:33;;;;;;;;;;;;;;;;;;5017163;28;19948;-63
2022/04/28 17:18:59;;;;;;;;;;;;;;;;;;5015428;28;19917;-63
2022/04/28 17:21:24;;;;;;;;;;;;;;;;;;5015387;28;19917;-63
2022/04/28 17:23:49;;;;;;;;;;;;;;;;;;5010138;28;19957;-63
2022/04/28 17:26:15;;;;;;;;;;;;;;;;;;5010162;28;19921;-64
2022/04/28 17:28:40;;;;;;;;;;;;;;;;;;5003209;28;19929;-64
2022/04/28 17:31:05;;;;;;;;;;;;;;;;;;5010202;28;20333;-64
2022/04/28 17:33:32;;;;;;;;;;;;;;;;;;5009395;28;21322;-64